Time;durP1;ratioP1;P1;durP2;ratioP2;P2;SDS_P1;SDS_P2;PMS_P1;PMS_P2;Temp;Humidity;BMP_temperature;BMP_pressure;BME280_temperature;BME280_humidity;BME280_pressure;Samples;Min_cycle;Max_cycle;Signal;HPM_P1;HPM_P2
2021/01/06 00:08:41;;;;;;;13.62;7.18;;;3.20;99.90;;;;;;6740794;88;20196;-74
2021/01/06 00:18:42;;;;;;;13.98;6.30;;;3.20;99.90;;;;;;6729533;88;20247;-74
2021/01/06 00:28:43;;;;;;;14.98;6.80;;;3.30;99.90;;;;;;6732235;88;20280;-74
2021/01/06 00:38:43;;;;;;;14.23;6.57;;;3.10;99.90;;;;;;6730070;88;20198;-74
2021/01/06 00:48:44;;;;;;;14.13;6.28;;;3.10;99.90;;;;;;6734531;88;20202;-74
2021/01/06 00:58:44;;;;;;;14.30;6.68;;;3.10;99.90;;;;;;6732493;88;20181;-74
2021/01/06 01:08:45;;;;;;;16.30;6.30;;;3.20;99.90;;;;;;6740026;88;20178;-74
2021/01/06 01:18:46;;;;;;;12.30;5.55;;;3.00;99.90;;;;;;6754722;88;20180;-74
2021/01/06 01:28:46;;;;;;;15.65;6.35;;;3.00;99.90;;;;;;6733643;88;20211;-74
2021/01/06 01:38:47;;;;;;;15.52;6.85;;;2.90;99.90;;;;;;6733394;88;20647;-74
2021/01/06 01:48:50;;;;;;;16.35;6.37;;;2.60;99.90;;;;;;6734727;88;20626;-74
2021/01/06 01:58:54;;;;;;;14.15;6.68;;;2.50;99.90;;;;;;6738225;88;20229;-74
2021/01/06 02:09:01;;;;;;;14.82;6.35;;;2.60;99.90;;;;;;6736140;88;20173;-74
2021/01/06 02:19:03;;;;;;;15.13;6.20;;;2.50;99.90;;;;;;6745089;88;20236;-74
2021/01/06 02:29:04;;;;;;;13.25;6.18;;;2.60;99.90;;;;;;6740695;88;20201;-74
2021/01/06 02:39:07;;;;;;;13.45;5.72;;;2.50;99.90;;;;;;6752582;88;20202;-74
2021/01/06 02:49:08;;;;;;;14.77;5.93;;;2.60;99.90;;;;;;6739425;88;20193;-74
2021/01/06 02:59:11;;;;;;;15.65;6.07;;;2.50;99.90;;;;;;6740794;88;20177;-74
2021/01/06 03:09:26;;;;;;;13.20;5.85;;;2.40;99.90;;;;;;6737183;88;20181;-74
2021/01/06 03:19:28;;;;;;;13.45;5.45;;;2.70;99.90;;;;;;6739847;88;20367;-74
2021/01/06 03:29:31;;;;;;;13.93;5.80;;;2.60;99.90;;;;;;6736432;88;20193;-74
2021/01/06 03:39:38;;;;;;;12.68;5.80;;;2.60;99.90;;;;;;6740979;88;20193;-74
2021/01/06 03:49:54;;;;;;;12.07;5.85;;;2.60;99.90;;;;;;6743003;88;20240;-74
2021/01/06 03:59:57;;;;;;;13.57;6.15;;;2.70;99.90;;;;;;6739387;88;20292;-74
2021/01/06 04:10:00;;;;;;;13.75;6.47;;;2.70;99.90;;;;;;6738735;88;20197;-75
2021/01/06 04:20:19;;;;;;;11.68;5.35;;;2.80;99.90;;;;;;6742062;88;20576;-74
2021/01/06 04:30:26;;;;;;;11.12;5.47;;;2.70;99.90;;;;;;6734278;88;20199;-74
2021/01/06 04:40:36;;;;;;;12.23;5.90;;;2.70;99.90;;;;;;6728874;88;20244;-75
2021/01/06 04:51:07;;;;;;;9.70;4.90;;;2.80;99.90;;;;;;6747112;88;20692;-76
2021/01/06 05:01:26;;;;;;;11.85;5.37;;;2.70;99.90;;;;;;6747307;88;22290;-75
2021/01/06 05:11:44;;;;;;;12.43;5.57;;;2.80;99.90;;;;;;6742419;88;20750;-74
2021/01/06 05:21:44;;;;;;;12.10;5.78;;;2.90;99.90;;;;;;6732507;88;20189;-74
2021/01/06 05:31:45;;;;;;;9.93;5.10;;;2.90;99.90;;;;;;6758127;88;20371;-74
2021/01/06 05:41:48;;;;;;;13.32;5.20;;;3.10;99.90;;;;;;6747984;88;20190;-74
2021/01/06 05:52:00;;;;;;;11.15;4.97;;;3.00;99.90;;;;;;6750732;88;20576;-75
2021/01/06 06:02:08;;;;;;;12.20;5.70;;;3.10;99.90;;;;;;6755180;88;20192;-75
2021/01/06 06:12:37;;;;;;;13.45;5.55;;;3.20;99.90;;;;;;6722622;88;20193;-75
2021/01/06 06:23:10;;;;;;;10.80;5.12;;;3.10;99.90;;;;;;6730939;88;20181;-75
2021/01/06 06:33:21;;;;;;;10.93;5.28;;;3.30;99.90;;;;;;6734547;88;20193;-74
2021/01/06 06:43:27;;;;;;;9.32;5.22;;;3.30;99.90;;;;;;6740043;88;20387;-74
2021/01/06 06:53:32;;;;;;;9.03;4.50;;;3.40;99.90;;;;;;6741567;88;20266;-75
2021/01/06 07:03:32;;;;;;;9.55;4.90;;;3.30;99.90;;;;;;6731751;88;20209;-74
2021/01/06 07:13:34;;;;;;;8.95;4.45;;;3.30;99.90;;;;;;6728703;88;20209;-74
2021/01/06 07:23:37;;;;;;;9.30;4.93;;;3.30;99.90;;;;;;6731992;88;20775;-74
2021/01/06 07:33:41;;;;;;;12.50;5.62;;;3.40;99.90;;;;;;6737664;88;20261;-74
2021/01/06 07:44:04;;;;;;;12.90;5.35;;;3.50;99.90;;;;;;6733466;88;20184;-75
2021/01/06 07:54:10;;;;;;;9.70;4.90;;;3.50;99.90;;;;;;6734435;88;20338;-75
2021/01/06 08:04:22;;;;;;;10.57;4.90;;;3.50;99.90;;;;;;6748845;88;20206;-75
2021/01/06 08:14:31;;;;;;;11.88;4.82;;;3.50;99.90;;;;;;6731556;88;20177;-74
2021/01/06 08:24:49;;;;;;;12.05;5.87;;;3.60;99.90;;;;;;6732859;88;20185;-75
2021/01/06 08:34:57;;;;;;;12.88;5.65;;;3.40;99.90;;;;;;6753322;88;20153;-75
2021/01/06 08:44:59;;;;;;;9.02;4.85;;;3.50;99.90;;;;;;6740826;87;20758;-75
2021/01/06 08:55:37;;;;;;;9.85;5.43;;;3.70;99.90;;;;;;6741763;88;21010;-76
2021/01/06 09:06:03;;;;;;;12.60;6.15;;;3.70;99.90;;;;;;6746656;88;20186;-75
2021/01/06 09:16:09;;;;;;;11.20;5.60;;;3.80;99.90;;;;;;6745438;88;20206;-75
2021/01/06 09:26:14;;;;;;;13.13;6.00;;;3.70;99.90;;;;;;6748182;88;20237;-75
2021/01/06 09:36:16;;;;;;;11.20;5.57;;;3.80;99.90;;;;;;6739491;88;20200;-74
2021/01/06 09:46:50;;;;;;;10.85;5.47;;;3.80;99.90;;;;;;6735187;88;20247;-74
2021/01/06 09:56:51;;;;;;;10.18;5.07;;;3.70;99.90;;;;;;6729548;88;20185;-75
2021/01/06 10:07:14;;;;;;;9.70;4.60;;;3.90;99.90;;;;;;6734105;88;20477;-76
2021/01/06 10:17:27;;;;;;;9.90;5.53;;;3.80;99.90;;;;;;6735478;88;20360;-75
2021/01/06 10:27:37;;;;;;;8.43;4.60;;;3.90;99.90;;;;;;6742057;88;20544;-74
2021/01/06 10:37:43;;;;;;;8.82;5.03;;;4.10;99.90;;;;;;6739294;88;20292;-76
2021/01/06 10:47:52;;;;;;;9.97;5.47;;;4.20;99.90;;;;;;6742433;88;20193;-75
2021/01/06 10:58:22;;;;;;;8.20;4.62;;;4.00;99.90;;;;;;6755213;88;20200;-76
2021/01/06 11:08:41;;;;;;;13.32;6.07;;;3.90;99.90;;;;;;6752730;88;20207;-76
2021/01/06 11:18:53;;;;;;;10.55;5.70;;;4.00;99.90;;;;;;6754572;88;20157;-80
2021/01/06 11:29:18;;;;;;;11.82;6.32;;;4.20;99.90;;;;;;6753877;88;20243;-79
2021/01/06 11:39:27;;;;;;;11.00;6.00;;;4.10;99.90;;;;;;6751901;88;20376;-78
2021/01/06 11:49:34;;;;;;;9.90;5.47;;;4.30;99.90;;;;;;6752049;88;20288;-77
2021/01/06 12:00:00;;;;;;;10.65;6.07;;;4.30;99.90;;;;;;6750644;88;20190;-77
2021/01/06 12:10:19;;;;;;;9.43;5.30;;;4.30;99.90;;;;;;6750270;88;20209;-78
2021/01/06 12:20:30;;;;;;;11.50;6.12;;;4.30;99.90;;;;;;6760199;88;20231;-78
2021/01/06 12:31:12;;;;;;;11.45;6.80;;;4.20;99.90;;;;;;6747795;88;20201;-76
2021/01/06 12:41:47;;;;;;;17.48;7.95;;;4.40;99.90;;;;;;6750161;88;20182;-77
2021/01/06 12:52:24;;;;;;;16.70;8.13;;;4.40;99.90;;;;;;6747651;88;20216;-77
2021/01/06 13:02:38;;;;;;;19.10;8.45;;;4.20;99.90;;;;;;6747999;88;20775;-76
2021/01/06 13:12:46;;;;;;;19.55;8.90;;;4.10;99.90;;;;;;6741224;88;20688;-77
2021/01/06 13:22:55;;;;;;;19.48;8.30;;;4.10;99.90;;;;;;6740368;88;20198;-76
2021/01/06 13:33:18;;;;;;;18.83;8.68;;;4.10;99.90;;;;;;6746774;88;20279;-77
2021/01/06 13:43:46;;;;;;;18.17;8.63;;;3.90;99.90;;;;;;6744032;88;20706;-78
2021/01/06 13:54:01;;;;;;;19.33;9.30;;;3.90;99.90;;;;;;6746391;88;20318;-76
2021/01/06 14:04:11;;;;;;;19.92;9.20;;;3.80;99.90;;;;;;6740734;88;20606;-75
2021/01/06 14:14:22;;;;;;;20.62;9.20;;;3.70;99.90;;;;;;6739941;88;20192;-77
2021/01/06 14:24:26;;;;;;;23.02;9.65;;;3.80;99.90;;;;;;6750417;88;20595;-77
2021/01/06 14:34:30;;;;;;;19.92;9.75;;;3.70;99.90;;;;;;6743942;88;20355;-76
2021/01/06 14:44:56;;;;;;;19.17;9.93;;;3.60;99.90;;;;;;6736832;88;20185;-76
2021/01/06 14:55:15;;;;;;;19.75;9.82;;;3.70;99.90;;;;;;6737604;88;20208;-76
2021/01/06 15:05:39;;;;;;;20.00;10.05;;;3.60;99.90;;;;;;6733545;88;20206;-75
2021/01/06 15:15:50;;;;;;;21.65;10.52;;;3.60;99.90;;;;;;6736121;88;20201;-76
2021/01/06 15:25:57;;;;;;;27.65;11.98;;;3.70;99.90;;;;;;6734129;88;20178;-74
2021/01/06 15:36:03;;;;;;;;;;;3.60;99.90;;;;;;6732365;88;20235;-75
2021/01/06 15:46:11;;;;;;;23.38;12.40;;;3.50;99.90;;;;;;6728691;88;20063;-76
2021/01/06 15:56:17;;;;;;;28.62;13.38;;;3.40;99.90;;;;;;6744978;88;20268;-75
2021/01/06 16:06:18;;;;;;;31.80;13.93;;;3.50;99.90;;;;;;6735793;88;20259;-75
2021/01/06 16:16:45;;;;;;;25.77;12.98;;;3.40;99.90;;;;;;6741234;88;20200;-75
2021/01/06 16:26:53;;;;;;;31.27;14.57;;;3.30;99.90;;;;;;6743743;88;20199;-76
2021/01/06 16:37:11;;;;;;;31.90;15.00;;;3.30;99.90;;;;;;6742357;88;20236;-75
2021/01/06 16:47:22;;;;;;;32.13;15.35;;;3.20;99.90;;;;;;6738916;88;20310;-75
2021/01/06 16:57:32;;;;;;;34.38;16.00;;;3.20;99.90;;;;;;6744841;88;20279;-75
2021/01/06 17:07:36;;;;;;;29.73;14.40;;;3.10;99.90;;;;;;6744438;88;20203;-74
2021/01/06 17:17:37;;;;;;;27.60;13.40;;;3.10;99.90;;;;;;6742303;88;20169;-76
2021/01/06 17:27:41;;;;;;;29.67;13.88;;;3.00;99.90;;;;;;6746534;88;20220;-77
2021/01/06 17:37:44;;;;;;;30.20;14.50;;;2.90;99.90;;;;;;6758825;88;20217;-79
2021/01/06 17:47:45;;;;;;;30.60;14.50;;;2.80;99.90;;;;;;6755317;88;20199;-75
2021/01/06 17:57:46;;;;;;;32.65;13.93;;;2.70;99.90;;;;;;6756513;88;20173;-74
2021/01/06 18:07:47;;;;;;;30.15;14.85;;;2.70;99.90;;;;;;6755230;88;20240;-77
2021/01/06 18:17:47;;;;;;;34.67;15.38;;;2.70;99.90;;;;;;6740031;88;20205;-76
2021/01/06 18:27:48;;;;;;;38.05;14.87;;;2.70;99.90;;;;;;6731470;88;20235;-76
2021/01/06 18:37:58;;;;;;;38.35;17.33;;;2.70;99.90;;;;;;6732014;88;20200;-77
2021/01/06 18:47:59;;;;;;;36.70;16.08;;;2.70;99.90;;;;;;6733969;88;20614;-75
2021/01/06 18:57:59;;;;;;;36.40;15.68;;;2.50;99.90;;;;;;6741090;88;20170;-76
2021/01/06 19:08:00;;;;;;;32.40;12.80;;;2.50;99.90;;;;;;6738982;88;20212;-76
2021/01/06 19:18:00;;;;;;;28.38;12.45;;;2.40;99.90;;;;;;6748599;88;20811;-76
2021/01/06 19:28:07;;;;;;;27.57;12.30;;;2.40;99.90;;;;;;6745706;88;20205;-74
2021/01/06 19:38:09;;;;;;;;;;;2.40;99.90;;;;;;6743605;88;21231;-74
2021/01/06 19:48:10;;;;;;;23.38;11.00;;;2.30;99.90;;;;;;6737209;88;20053;-74
2021/01/06 19:58:25;;;;;;;22.30;10.50;;;2.20;99.90;;;;;;6736625;88;20203;-74
2021/01/06 20:08:40;;;;;;;21.12;10.32;;;2.20;99.90;;;;;;6738288;88;20982;-74
2021/01/06 20:18:42;;;;;;;25.85;11.73;;;2.10;99.90;;;;;;6733153;88;20189;-74
2021/01/06 20:28:47;;;;;;;24.33;10.45;;;2.20;99.90;;;;;;6735403;88;20235;-73
2021/01/06 20:38:48;;;;;;;24.12;10.95;;;2.30;99.90;;;;;;6735844;88;21016;-73
2021/01/06 20:48:48;;;;;;;26.05;11.75;;;2.10;99.90;;;;;;6743025;88;20213;-76
2021/01/06 20:58:49;;;;;;;24.35;10.60;;;2.20;99.90;;;;;;6744329;88;20627;-76
2021/01/06 21:08:49;;;;;;;24.58;10.35;;;2.20;99.90;;;;;;6738558;88;20201;-75
2021/01/06 21:18:50;;;;;;;24.30;10.57;;;2.10;99.90;;;;;;6738820;88;20723;-75
2021/01/06 21:28:50;;;;;;;26.40;11.10;;;2.00;99.90;;;;;;6731067;88;20216;-75
2021/01/06 21:38:51;;;;;;;27.05;11.23;;;2.10;99.90;;;;;;6735327;88;20234;-76
2021/01/06 21:48:51;;;;;;;22.30;10.82;;;2.10;99.90;;;;;;6735591;88;20176;-75
2021/01/06 21:58:52;;;;;;;22.37;9.90;;;2.10;99.90;;;;;;6746910;88;20586;-76
2021/01/06 22:19:13;;;;;;;22.62;10.15;;;2.10;99.90;;;;;;6740981;88;20173;-79
2021/01/06 22:29:14;;;;;;;23.62;9.32;;;2.00;99.90;;;;;;6737616;88;20916;-77
2021/01/06 22:39:14;;;;;;;21.80;8.80;;;1.90;99.90;;;;;;6733048;88;20193;-77
2021/01/06 22:49:15;;;;;;;22.95;9.55;;;2.00;99.90;;;;;;6742942;88;20200;-77
2021/01/06 22:59:15;;;;;;;27.95;10.45;;;1.90;99.90;;;;;;6742379;88;20193;-77
2021/01/06 23:09:17;;;;;;;22.40;8.75;;;2.00;99.90;;;;;;6745205;88;20185;-78
2021/01/06 23:19:18;;;;;;;23.80;9.48;;;1.90;99.90;;;;;;6744014;88;20404;-77
2021/01/06 23:29:20;;;;;;;22.42;9.82;;;1.80;99.90;;;;;;6744460;88;20239;-78
2021/01/06 23:39:22;;;;;;;24.37;10.57;;;1.80;99.90;;;;;;6746693;88;20189;-77
2021/01/06 23:49:22;;;;;;;23.62;10.38;;;1.90;99.90;;;;;;6744803;88;20604;-78
2021/01/06 23:59:23;;;;;;;23.98;9.98;;;1.90;99.90;;;;;;6740654;88;20222;-77
